createdAt,value
2022-09-29T00:02:19.863Z,98333.94
2022-09-29T00:04:46.308Z,98332.94
2022-09-29T00:07:12.859Z,98332.34
2022-09-29T00:09:39.324Z,98330.34
2022-09-29T00:12:05.844Z,98324.06
2022-09-29T00:14:32.412Z,98326.72
2022-09-29T00:16:58.816Z,98323.41
2022-09-29T00:19:25.577Z,98327.94
2022-09-29T00:21:52.708Z,98323.94
2022-09-29T00:24:19.277Z,98324.75
2022-09-29T00:26:46.852Z,98328.88
2022-09-29T00:29:13.303Z,98336.78
2022-09-29T00:31:39.852Z,98330.69
2022-09-29T00:34:06.327Z,98325.28
2022-09-29T00:36:32.912Z,98320.19
2022-09-29T00:38:59.564Z,98330.88
2022-09-29T00:41:28.981Z,98340.22
2022-09-29T00:44:00.929Z,98334.91
2022-09-29T00:46:48.691Z,98336.47
2022-09-29T00:49:25.042Z,98336.63
2022-09-29T00:52:00.156Z,98332.50
2022-09-29T00:54:30.206Z,98329.47
2022-09-29T00:56:57.141Z,98335.28
2022-09-29T00:59:37.035Z,98341.63
2022-09-29T01:02:06.191Z,98340.97
2022-09-29T01:04:32.719Z,98341.31
2022-09-29T01:06:59.355Z,98346.09
2022-09-29T01:09:29.252Z,98345.25
2022-09-29T01:12:00.372Z,98346.94
2022-09-29T01:14:28.061Z,98341.34
2022-09-29T01:16:54.725Z,98350.28
2022-09-29T01:19:32.472Z,98351.25
2022-09-29T01:22:49.527Z,98356.75
2022-09-29T01:25:53.399Z,98357.72
2022-09-29T01:28:57.669Z,98355.59
2022-09-29T01:32:02.852Z,98358.94
2022-09-29T01:35:00.901Z,98361.59
2022-09-29T01:38:09.341Z,98366.41
2022-09-29T01:40:54.696Z,98361.28
2022-09-29T01:43:27.574Z,98368.72
2022-09-29T01:46:02.946Z,98357.66
2022-09-29T01:48:33.938Z,98368.56
2022-09-29T01:51:11.405Z,98370.22
2022-09-29T01:53:44.417Z,98368.09
2022-09-29T01:56:15.033Z,98366.13
2022-09-29T01:58:49.186Z,98368.22
2022-09-29T02:01:16.976Z,98363.13
2022-09-29T02:04:05.520Z,98363.94
2022-09-29T02:06:37.494Z,98369.38
2022-09-29T02:09:09.295Z,98372.88
2022-09-29T02:11:38.585Z,98371.88
2022-09-29T02:14:14.102Z,98372.53
2022-09-29T02:16:44.996Z,98374.81
2022-09-29T02:19:17.557Z,98381.09
2022-09-29T02:21:44.128Z,98382.44
2022-09-29T02:24:13.756Z,98383.75
2022-09-29T02:26:41.587Z,98389.34
2022-09-29T02:29:08.716Z,98395.81
2022-09-29T02:31:36.469Z,98383.75
2022-09-29T02:34:04.419Z,98394.63
2022-09-29T02:36:33.519Z,98388.69
2022-09-29T02:39:09.109Z,98391.03
2022-09-29T02:41:47.668Z,98396.31
2022-09-29T02:44:44.945Z,98412.13
2022-09-29T02:47:32.211Z,98411.63
2022-09-29T02:50:19.748Z,98407.19
2022-09-29T02:52:53.149Z,98412.94
2022-09-29T02:55:24.731Z,98422.00
2022-09-29T02:58:15.446Z,98421.88
2022-09-29T03:00:42.919Z,98424.66
2022-09-29T03:03:09.430Z,98422.53
2022-09-29T03:05:35.873Z,98418.56
2022-09-29T03:08:03.168Z,98418.56
2022-09-29T03:10:30.499Z,98415.94
2022-09-29T03:12:57.079Z,98422.06
2022-09-29T03:15:23.494Z,98430.81
2022-09-29T03:17:50.571Z,98422.38
2022-09-29T03:20:17.038Z,98430.00
2022-09-29T03:22:43.495Z,98433.16
2022-09-29T03:25:09.944Z,98439.44
2022-09-29T03:27:38.307Z,98448.50
2022-09-29T03:30:05.373Z,98450.81
2022-09-29T03:32:31.767Z,98445.38
2022-09-29T03:34:58.210Z,98441.41
2022-09-29T03:37:24.791Z,98438.63
2022-09-29T03:39:51.447Z,98432.34
2022-09-29T03:42:17.934Z,98434.97
2022-09-29T03:44:44.386Z,98436.97
2022-09-29T03:47:10.810Z,98438.63
2022-09-29T03:49:37.224Z,98441.59
2022-09-29T03:52:04.505Z,98448.53
2022-09-29T03:54:30.979Z,98449.19
2022-09-29T03:56:57.461Z,98453.16
2022-09-29T03:59:23.918Z,98456.81
2022-09-29T04:01:50.403Z,98454.97
2022-09-29T04:04:16.869Z,98440.94
2022-09-29T04:06:43.433Z,98436.97
2022-09-29T04:09:09.878Z,98441.09
2022-09-29T04:11:36.814Z,98437.97
2022-09-29T04:14:04.500Z,98438.13
2022-09-29T04:16:30.990Z,98447.53
2022-09-29T04:18:57.576Z,98443.91
2022-09-29T04:21:24.153Z,98444.72
2022-09-29T04:23:50.629Z,98448.69
2022-09-29T04:26:17.634Z,98457.78
2022-09-29T04:28:44.054Z,98453.31
2022-09-29T04:31:10.735Z,98464.69
2022-09-29T04:33:39.263Z,98469.66
2022-09-29T04:36:06.136Z,98465.69
2022-09-29T04:38:32.757Z,98468.00
2022-09-29T04:40:59.470Z,98482.84
2022-09-29T04:43:26.079Z,98478.88
2022-09-29T04:45:53.095Z,98478.06
2022-09-29T04:48:19.561Z,98478.88
2022-09-29T04:50:46.350Z,98480.69
2022-09-29T04:53:14.866Z,98486.94
2022-09-29T04:55:41.745Z,98483.47
2022-09-29T04:58:08.234Z,98482.47
2022-09-29T05:00:35.229Z,98481.97
2022-09-29T05:03:01.775Z,98485.13
2022-09-29T05:05:28.245Z,98486.75
2022-09-29T05:07:54.896Z,98487.41
2022-09-29T05:10:21.699Z,98488.56
2022-09-29T05:12:50.554Z,98490.72
2022-09-29T05:15:23.542Z,98489.69
2022-09-29T05:17:53.426Z,98499.09
2022-09-29T05:20:19.922Z,98504.75
2022-09-29T05:22:46.419Z,98509.84
2022-09-29T05:25:12.878Z,98514.81
2022-09-29T05:27:39.452Z,98513.09
2022-09-29T05:30:06.577Z,98519.56
2022-09-29T05:32:33.054Z,98520.38
2022-09-29T05:34:59.820Z,98516.03
2022-09-29T05:37:26.325Z,98530.94
2022-09-29T05:39:53.222Z,98520.81
2022-09-29T05:42:20.413Z,98530.94
2022-09-29T05:44:46.919Z,98528.81
2022-09-29T05:47:13.386Z,98532.78
2022-09-29T05:49:39.896Z,98534.56
2022-09-29T05:52:06.984Z,98538.72
2022-09-29T05:54:33.605Z,98538.22
2022-09-29T05:57:00.025Z,98542.19
2022-09-29T05:59:26.479Z,98551.59
2022-09-29T06:01:53.365Z,98546.31
2022-09-29T06:04:19.833Z,98548.78
2022-09-29T06:06:48.136Z,98542.53
2022-09-29T06:09:15.114Z,98555.78
2022-09-29T06:11:42.131Z,98549.34
2022-09-29T06:14:08.637Z,98549.50
2022-09-29T06:16:35.255Z,98537.25
2022-09-29T06:19:04.629Z,98554.44
2022-09-29T06:21:32.082Z,98560.56
2022-09-29T06:23:58.515Z,98561.72
2022-09-29T06:26:26.144Z,98565.22
2022-09-29T06:28:54.016Z,98567.88
2022-09-29T06:31:23.344Z,98575.97
2022-09-29T06:33:50.786Z,98571.31
2022-09-29T06:36:38.477Z,98575.28
2022-09-29T06:39:06.106Z,98575.97
2022-09-29T06:41:32.579Z,98577.28
2022-09-29T06:43:59.030Z,98576.94
2022-09-29T06:46:26.960Z,98576.28
2022-09-29T06:48:54.566Z,98577.91
2022-09-29T06:51:24.639Z,98579.88
2022-09-29T06:54:00.959Z,98586.47
2022-09-29T06:56:30.183Z,98598.06
2022-09-29T06:58:56.685Z,98602.34
2022-09-29T07:01:23.274Z,98606.50
2022-09-29T07:03:50.013Z,98609.47
2022-09-29T07:06:19.778Z,98607.00
2022-09-29T07:08:47.010Z,98611.91
2022-09-29T07:11:13.935Z,98602.94
2022-09-29T07:13:40.347Z,98614.91
2022-09-29T07:16:08.427Z,98618.63
2022-09-29T07:18:35.622Z,98618.97
2022-09-29T07:21:03.211Z,98620.16
2022-09-29T07:23:29.680Z,98621.66
2022-09-29T07:25:56.290Z,98626.31
2022-09-29T07:28:23.101Z,98631.09
2022-09-29T07:31:13.277Z,98630.84
2022-09-29T07:33:40.647Z,98635.75
2022-09-29T07:36:08.009Z,98633.44
2022-09-29T07:38:34.574Z,98637.88
2022-09-29T07:41:03.278Z,98640.19
2022-09-29T07:43:30.507Z,98646.19
2022-09-29T07:45:57.191Z,98651.50
2022-09-29T07:48:25.921Z,98650.47
2022-09-29T07:51:15.904Z,98651.84
2022-09-29T07:53:42.797Z,98659.06
2022-09-29T07:56:14.632Z,98660.03
2022-09-29T07:58:42.362Z,98663.88
2022-09-29T08:01:13.604Z,98666.09
2022-09-29T08:03:42.008Z,98670.81
2022-09-29T08:06:10.158Z,98671.31
2022-09-29T08:08:41.969Z,98676.34
2022-09-29T08:11:22.473Z,98677.78
2022-09-29T08:13:56.437Z,98677.31
2022-09-29T08:16:23.594Z,98678.66
2022-09-29T08:18:50.426Z,98675.59
2022-09-29T08:21:16.939Z,98685.44
2022-09-29T08:23:43.962Z,98685.19
2022-09-29T08:26:16.173Z,98690.22
2022-09-29T08:28:43.316Z,98699.25
2022-09-29T08:31:12.484Z,98705.97
2022-09-29T08:33:38.996Z,98701.19
2022-09-29T08:36:14.440Z,98704.78
2022-09-29T08:38:52.133Z,98705.97
2022-09-29T08:41:27.867Z,98705.16
2022-09-29T08:44:00.977Z,98699.91
2022-09-29T08:46:38.703Z,98708.81
2022-09-29T08:49:12.214Z,98713.66
2022-09-29T08:51:45.548Z,98715.75
2022-09-29T08:54:35.337Z,98718.88
2022-09-29T08:57:06.957Z,98724.44
2022-09-29T08:59:33.606Z,98725.25
2022-09-29T09:02:14.121Z,98725.69
2022-09-29T09:04:55.954Z,98729.69
2022-09-29T09:07:42.104Z,98728.94
2022-09-29T09:10:38.480Z,98731.44
2022-09-29T09:13:24.161Z,98738.81
2022-09-29T09:16:06.596Z,98735.09
2022-09-29T09:19:05.448Z,98735.59
2022-09-29T09:21:42.655Z,98740.75
2022-09-29T09:24:38.323Z,98735.00
2022-09-29T09:27:05.109Z,98740.84
2022-09-29T09:29:40.370Z,98738.66
2022-09-29T09:32:17.508Z,98746.44
2022-09-29T09:35:17.770Z,98744.44
2022-09-29T09:37:47.917Z,98744.34
2022-09-29T09:40:25.466Z,98742.78
2022-09-29T09:43:05.596Z,98747.63
2022-09-29T09:45:39.537Z,98747.41
2022-09-29T09:48:31.652Z,98760.41
2022-09-29T09:51:01.480Z,98753.41
2022-09-29T09:53:54.153Z,98769.91
2022-09-29T09:56:48.484Z,98765.59
2022-09-29T09:59:31.289Z,98774.47
2022-09-29T10:01:58.479Z,98779.66
2022-09-29T10:04:26.028Z,98774.91
2022-09-29T10:06:53.134Z,98782.31
2022-09-29T10:09:20.388Z,98790.59
2022-09-29T10:11:47.085Z,98790.41
2022-09-29T10:14:22.032Z,98790.94
2022-09-29T10:17:07.256Z,98791.78
2022-09-29T10:19:54.121Z,98796.41
2022-09-29T10:25:06.134Z,98793.91
2022-09-29T10:27:32.563Z,98808.66
2022-09-29T10:30:00.231Z,98805.72
2022-09-29T10:32:36.637Z,98807.25
2022-09-29T10:35:09.315Z,98810.03
2022-09-29T10:37:38.261Z,98812.31
2022-09-29T10:40:21.349Z,98813.91
2022-09-29T10:42:50.900Z,98818.31
2022-09-29T10:45:25.665Z,98812.28
2022-09-29T10:47:58.066Z,98816.25
2022-09-29T10:50:34.806Z,98815.78
2022-09-29T10:53:20.194Z,98815.56
2022-09-29T10:55:53.294Z,98818.00
2022-09-29T10:58:45.104Z,98821.06
2022-09-29T11:01:16.720Z,98826.50
2022-09-29T11:04:01.528Z,98831.19
2022-09-29T11:06:29.816Z,98836.06
2022-09-29T11:08:58.151Z,98835.56
2022-09-29T11:11:29.170Z,98841.91
2022-09-29T11:13:57.137Z,98846.69
2022-09-29T11:16:37.239Z,98846.25
2022-09-29T11:19:12.667Z,98847.09
2022-09-29T11:21:51.431Z,98848.56
2022-09-29T11:24:20.656Z,98850.69
2022-09-29T11:26:53.176Z,98849.31
2022-09-29T11:29:32.418Z,98845.31
2022-09-29T11:32:14.866Z,98840.84
2022-09-29T11:35:06.196Z,98845.63
2022-09-29T11:38:11.736Z,98852.16
2022-09-29T11:40:47.345Z,98853.19
2022-09-29T11:43:25.505Z,98852.66
2022-09-29T11:45:59.371Z,98861.47
2022-09-29T11:48:45.199Z,98852.81
2022-09-29T11:51:23.630Z,98852.47
2022-09-29T11:53:57.847Z,98856.19
2022-09-29T11:56:44.215Z,98850.53
2022-09-29T11:59:48.296Z,98857.91
2022-09-29T12:02:42.758Z,98849.66
2022-09-29T12:05:24.392Z,98854.75
2022-09-29T12:08:06.573Z,98854.31
2022-09-29T12:10:44.217Z,98850.56
2022-09-29T12:13:37.366Z,98853.06
2022-09-29T12:16:25.558Z,98859.88
2022-09-29T12:18:59.886Z,98866.41
2022-09-29T12:21:32.486Z,98862.75
2022-09-29T12:24:01.426Z,98866.72
2022-09-29T12:26:28.083Z,98864.34
2022-09-29T12:29:00.026Z,98871.34
2022-09-29T12:31:35.686Z,98887.69
2022-09-29T12:34:10.999Z,98877.13
2022-09-29T12:37:03.188Z,98881.28
2022-09-29T12:39:38.474Z,98882.63
2022-09-29T12:42:26.105Z,98898.22
2022-09-29T12:45:06.908Z,98889.22
2022-09-29T12:47:46.963Z,98892.78
2022-09-29T12:50:20.434Z,98894.72
2022-09-29T12:52:53.846Z,98888.59
2022-09-29T12:55:47.127Z,98888.22
2022-09-29T12:58:23.326Z,98896.50
2022-09-29T13:00:57.033Z,98889.72
2022-09-29T13:03:53.417Z,98899.91
2022-09-29T13:06:49.665Z,98901.84
2022-09-29T13:09:28.159Z,98893.41
2022-09-29T13:12:25.570Z,98898.97
2022-09-29T13:15:16.964Z,98895.22
2022-09-29T13:18:04.827Z,98896.97
2022-09-29T13:20:43.813Z,98906.31
2022-09-29T13:23:35.448Z,98896.97
2022-09-29T13:26:38.404Z,98902.09
2022-09-29T13:29:17.198Z,98901.81
2022-09-29T13:31:46.155Z,98908.06
2022-09-29T13:34:40.188Z,98907.31
2022-09-29T13:37:13.142Z,98903.31
2022-09-29T13:39:43.169Z,98909.28
2022-09-29T13:42:52.015Z,98911.94
2022-09-29T13:45:21.308Z,98906.78
2022-09-29T13:47:52.356Z,98908.06
2022-09-29T13:50:40.978Z,98909.72
2022-09-29T13:53:19.248Z,98915.56
2022-09-29T13:55:48.682Z,98929.97
2022-09-29T13:58:27.861Z,98937.59
2022-09-29T14:00:55.981Z,98938.34
2022-09-29T14:03:26.123Z,98945.19
2022-09-29T14:06:39.646Z,98937.97
2022-09-29T14:09:08.616Z,98939.06
2022-09-29T14:12:04.492Z,98940.72
2022-09-29T14:14:38.202Z,98947.69
2022-09-29T14:17:36.199Z,98952.38
2022-09-29T14:20:15.238Z,98954.56
2022-09-29T14:22:44.415Z,98942.22
2022-09-29T14:25:11.234Z,98948.91
2022-09-29T14:27:39.932Z,98950.13
2022-09-29T14:30:08.912Z,98950.75
2022-09-29T14:32:42.326Z,98941.97
2022-09-29T14:35:32.568Z,98939.97
2022-09-29T14:38:10.924Z,98949.72
2022-09-29T14:40:37.536Z,98950.31
2022-09-29T14:43:13.734Z,98956.63
2022-09-29T14:46:19.841Z,98952.63
2022-09-29T14:49:39.953Z,98954.63
2022-09-29T14:52:52.222Z,98960.22
2022-09-29T14:55:33.663Z,98964.72
2022-09-29T14:58:37.939Z,98969.66
2022-09-29T15:01:27.315Z,98969.66
2022-09-29T15:03:56.966Z,98965.06
2022-09-29T15:06:26.231Z,98968.84
2022-09-29T15:09:00.321Z,98966.94
2022-09-29T15:11:38.792Z,98964.53
2022-09-29T15:14:28.704Z,98969.97
2022-09-29T15:16:57.759Z,98973.84
2022-09-29T15:19:30.851Z,98971.63
2022-09-29T15:22:34.742Z,98971.19
2022-09-29T15:25:29.850Z,98971.19
2022-09-29T15:28:01.012Z,98975.78
2022-09-29T15:30:28.972Z,98974.69
2022-09-29T15:33:24.724Z,98983.41
2022-09-29T15:35:56.430Z,98983.22
2022-09-29T15:38:22.877Z,98988.25
2022-09-29T15:41:00.661Z,98988.34
2022-09-29T15:43:28.652Z,98984.19
2022-09-29T15:46:13.260Z,99003.66
2022-09-29T15:48:39.729Z,99002.50
2022-09-29T15:51:16.985Z,98995.63
2022-09-29T15:53:44.243Z,99006.50
2022-09-29T15:56:10.987Z,98998.09
2022-09-29T15:58:44.184Z,99008.31
2022-09-29T16:01:13.815Z,99007.22
2022-09-29T16:03:57.749Z,99002.38
2022-09-29T16:06:39.787Z,99004.09
2022-09-29T16:09:13.706Z,99004.47
2022-09-29T16:11:40.548Z,99008.31
2022-09-29T16:14:12.124Z,99011.03
2022-09-29T16:16:48.030Z,99010.38
2022-09-29T16:19:26.250Z,99015.44
2022-09-29T16:21:58.949Z,99011.16
2022-09-29T16:24:31.498Z,99021.28
2022-09-29T16:26:58.762Z,99022.47
2022-09-29T16:29:28.486Z,99030.91
2022-09-29T16:31:55.443Z,99033.44
2022-09-29T16:34:22.019Z,99035.94
2022-09-29T16:36:52.566Z,99041.84
2022-09-29T16:39:21.378Z,99041.19
2022-09-29T16:41:53.515Z,99034.38
2022-09-29T16:44:28.659Z,99040.66
2022-09-29T16:46:59.487Z,99042.66
2022-09-29T16:49:36.564Z,99043.81
2022-09-29T16:52:17.969Z,99054.03
2022-09-29T16:54:47.511Z,99051.72
2022-09-29T16:57:22.815Z,99055.38
2022-09-29T16:59:53.449Z,99048.41
2022-09-29T17:02:20.282Z,99061.25
2022-09-29T17:04:46.961Z,99059.44
2022-09-29T17:07:15.764Z,99062.88
2022-09-29T17:09:59.540Z,99059.38
2022-09-29T17:12:29.169Z,99062.50
2022-09-29T17:14:55.907Z,99055.84
2022-09-29T17:17:28.989Z,99056.84
2022-09-29T17:19:56.633Z,99060.44
2022-09-29T17:22:32.191Z,99057.59
2022-09-29T17:24:59.550Z,99058.38
2022-09-29T17:27:45.636Z,99064.28
2022-09-29T17:30:17.722Z,99063.59
2022-09-29T17:32:46.985Z,99054.97
2022-09-29T17:35:14.768Z,99055.50
2022-09-29T17:37:41.742Z,99052.41
2022-09-29T17:40:22.558Z,99055.31
2022-09-29T17:42:49.250Z,99059.59
2022-09-29T17:45:17.214Z,99070.16
2022-09-29T17:47:45.103Z,99055.41
2022-09-29T17:50:22.814Z,99064.63
2022-09-29T17:52:49.362Z,99064.09
2022-09-29T17:55:15.909Z,99071.34
2022-09-29T17:57:43.455Z,99078.09
2022-09-29T18:00:14.551Z,99084.50
2022-09-29T18:02:41.387Z,99082.09
2022-09-29T18:05:09.550Z,99084.06
2022-09-29T18:07:36.165Z,99082.28
2022-09-29T18:10:04.158Z,99076.59
2022-09-29T18:12:30.692Z,99083.56
2022-09-29T18:14:57.263Z,99083.16
2022-09-29T18:17:23.790Z,99077.81
2022-09-29T18:19:50.711Z,99082.28
2022-09-29T18:22:19.117Z,99081.06
2022-09-29T18:24:45.676Z,99089.66
2022-09-29T18:27:14.815Z,99099.41
2022-09-29T18:29:41.523Z,99098.25
2022-09-29T18:32:11.029Z,99104.22
2022-09-29T18:34:37.715Z,99097.59
2022-09-29T18:37:04.956Z,99103.31
2022-09-29T18:39:31.612Z,99104.91
2022-09-29T18:41:58.019Z,99108.84
2022-09-29T18:44:29.627Z,99115.78
2022-09-29T18:46:56.227Z,99120.00
2022-09-29T18:49:23.656Z,99114.72
2022-09-29T18:51:53.095Z,99108.88
2022-09-29T18:54:19.642Z,99109.06
2022-09-29T18:56:46.101Z,99112.66
2022-09-29T18:59:12.724Z,99119.22
2022-09-29T19:01:40.236Z,99131.75
2022-09-29T19:04:06.901Z,99128.94
2022-09-29T19:06:34.576Z,99132.72
2022-09-29T19:09:01.247Z,99137.31
2022-09-29T19:11:27.853Z,99137.31
2022-09-29T19:13:56.357Z,99136.34
2022-09-29T19:16:23.911Z,99143.56
2022-09-29T19:18:50.601Z,99142.31
2022-09-29T19:21:17.162Z,99142.84
2022-09-29T19:23:46.438Z,99148.03
2022-09-29T19:26:16.500Z,99146.63
2022-09-29T19:28:43.508Z,99146.91
2022-09-29T19:31:16.307Z,99146.50
2022-09-29T19:33:43.210Z,99150.78
2022-09-29T19:36:14.221Z,99150.06
2022-09-29T19:38:41.263Z,99151.63
2022-09-29T19:41:22.569Z,99146.50
2022-09-29T19:43:50.293Z,99139.16
2022-09-29T19:46:18.478Z,99149.00
2022-09-29T19:48:45.277Z,99149.00
2022-09-29T19:51:33.009Z,99154.72
2022-09-29T19:54:11.101Z,99154.34
2022-09-29T19:56:42.456Z,99162.13
2022-09-29T19:59:10.551Z,99164.66
2022-09-29T20:01:37.144Z,99162.44
2022-09-29T20:04:04.597Z,99164.94
2022-09-29T20:06:31.124Z,99155.66
2022-09-29T20:08:57.693Z,99169.66
2022-09-29T20:11:24.246Z,99164.66
2022-09-29T20:13:50.789Z,99171.59
2022-09-29T20:16:17.491Z,99166.22
2022-09-29T20:18:48.084Z,99165.72
2022-09-29T20:21:15.337Z,99166.59
2022-09-29T20:23:41.780Z,99154.38
2022-09-29T20:26:11.069Z,99154.47
2022-09-29T20:28:37.885Z,99154.09
2022-09-29T20:31:06.090Z,99163.13
2022-09-29T20:33:33.426Z,99164.94
2022-09-29T20:36:04.066Z,99168.84
2022-09-29T20:38:33.443Z,99178.00
2022-09-29T20:41:04.360Z,99176.06
2022-09-29T20:43:31.080Z,99177.16
2022-09-29T20:46:04.323Z,99184.97
2022-09-29T20:48:35.085Z,99182.47
2022-09-29T20:51:04.254Z,99181.94
2022-09-29T20:53:35.267Z,99182.50
2022-09-29T20:56:06.409Z,99181.41
2022-09-29T20:58:33.401Z,99183.06
2022-09-29T21:01:22.850Z,99194.19
2022-09-29T21:03:53.714Z,99188.38
2022-09-29T21:06:29.068Z,99193.78
2022-09-29T21:08:55.914Z,99188.09
2022-09-29T21:11:22.610Z,99186.72
2022-09-29T21:13:50.927Z,99195.06
2022-09-29T21:16:18.127Z,99200.47
2022-09-29T21:18:45.153Z,99183.41
2022-09-29T21:21:12.142Z,99196.84
2022-09-29T21:23:40.092Z,99189.63
2022-09-29T21:26:18.814Z,99201.44
2022-09-29T21:28:50.139Z,99205.63
2022-09-29T21:31:18.465Z,99196.03
2022-09-29T21:33:46.923Z,99213.66
2022-09-29T21:36:15.450Z,99213.09
2022-09-29T21:38:42.887Z,99216.59
2022-09-29T21:41:27.508Z,99221.84
2022-09-29T21:43:56.355Z,99228.09
2022-09-29T21:46:25.452Z,99227.56
2022-09-29T21:48:56.823Z,99231.31
2022-09-29T21:51:29.475Z,99229.31
2022-09-29T21:53:57.694Z,99232.94
2022-09-29T21:56:26.360Z,99235.59
2022-09-29T21:58:54.111Z,99237.53
2022-09-29T22:01:21.421Z,99241.56
2022-09-29T22:03:49.003Z,99247.66
2022-09-29T22:06:21.479Z,99261.13
2022-09-29T22:08:48.690Z,99255.84
2022-09-29T22:11:16.907Z,99259.59
2022-09-29T22:13:43.823Z,99260.28
2022-09-29T22:16:13.399Z,99255.97
2022-09-29T22:18:42.292Z,99252.25
2022-09-29T22:21:12.063Z,99252.53
2022-09-29T22:23:38.685Z,99257.22
2022-09-29T22:26:08.899Z,99265.84
2022-09-29T22:28:35.750Z,99270.56
2022-09-29T22:31:09.253Z,99278.03
2022-09-29T22:33:37.394Z,99279.28
2022-09-29T22:36:04.980Z,99286.34
2022-09-29T22:38:34.404Z,99290.25
2022-09-29T22:41:00.870Z,99297.44
2022-09-29T22:43:27.297Z,99283.47
2022-09-29T22:45:54.014Z,99288.03
2022-09-29T22:48:20.543Z,99290.25
2022-09-29T22:50:48.160Z,99291.34
2022-09-29T22:53:15.499Z,99291.91
2022-09-29T22:55:42.343Z,99286.09
2022-09-29T22:58:12.408Z,99303.97
2022-09-29T23:00:40.279Z,99302.84
2022-09-29T23:03:07.277Z,99302.84
2022-09-29T23:05:34.176Z,99297.16
2022-09-29T23:08:00.656Z,99301.88
2022-09-29T23:10:27.158Z,99295.09
2022-09-29T23:12:53.820Z,99303.69
2022-09-29T23:15:20.282Z,99304.66
2022-09-29T23:17:47.274Z,99304.81
2022-09-29T23:20:13.732Z,99312.75
2022-09-29T23:22:40.308Z,99318.59
2022-09-29T23:25:07.034Z,99320.53
2022-09-29T23:27:33.655Z,99312.19
2022-09-29T23:30:00.068Z,99301.91
2022-09-29T23:32:26.537Z,99305.41
2022-09-29T23:34:53.394Z,99308.16
2022-09-29T23:37:19.840Z,99303.31
2022-09-29T23:39:46.336Z,99298.59
2022-09-29T23:42:14.407Z,99288.88
2022-09-29T23:44:40.917Z,99281.69
2022-09-29T23:47:07.685Z,99293.59
2022-09-29T23:49:34.287Z,99296.38
2022-09-29T23:52:03.166Z,99312.34
2022-09-29T23:54:29.716Z,99312.91
2022-09-29T23:56:57.159Z,99318.19
2022-09-29T23:59:24.007Z,99323.16
